LPPS Airport Information

Runway Information
Runway 01 Length 0 ft width 0 ft
Elevation 240 ft Threshold 0 ft Heading 0
Runway 19 Length 0 ft Width 0 ft
Elevation 341 ft Threshold 0 ft Heading 0
Runway 18 Length 9861 ft width 148 ft
Elevation 240 ft Threshold 0 ft Heading 178
Runway 36 Length 9861 ft Width 148 ft
Elevation 338 ft Threshold 0 ft Heading 358
Airport Frequencies
Type GCA Name GCA Frequency 123.3 MHZ
Type TWR Name TWR Frequency 118.4 MHZ
Airport Navaids
Type NDB Name Porto Santo Frequency 338 KHZ
Type VOR-DME Name Porto Santo Frequency 114900 KHZ
Type TACAN Name Porto Santo Frequency 116300 KHZ
Airport Weather Information & NOTAM
ADDS - METARS form results

(0928 UTC 19 September 2018)
Data provider http://aviationweather.gov/metar/data/
 
METAR text: LPPS 190900Z 09009KT 9999 FEW015 23/18 Q1020
Conditions at: LPPS (PORTO SANTO ISLA, PT) observed 0900 UTC 19 September 2018
Temperature: 23.0°C (73°F)
Dewpoint: 18.0°C (64°F) [RH = 73%]
Pressure (altimeter): 30.12 inches Hg (1020.0 mb)
Winds: from the E (90 degrees) at 10 MPH (9 knots; 4.6 m/s)
Visibility: 6 or more miles (10+ km)
Ceiling: at least 12,000 feet AGL
Clouds: few clouds at 1500 feet AGL
Weather: no significant weather observed at this time

METAR text: LPPS 190830Z 07008KT 050V110 9999 FEW015 23/18 Q1020
Conditions at: LPPS (PORTO SANTO ISLA, PT) observed 0830 UTC 19 September 2018
Temperature: 23.0°C (73°F)
Dewpoint: 18.0°C (64°F) [RH = 73%]
Pressure (altimeter): 30.12 inches Hg (1020.0 mb)
Winds: from the ENE (70 degrees) at 9 MPH (8 knots; 4.1 m/s)
Visibility: 6 or more miles (10+ km)
Ceiling: at least 12,000 feet AGL
Clouds: few clouds at 1500 feet AGL
Weather: no significant weather observed at this time

Forecast for: LPPS (PORTO SANTO ISLA, PT)
Text: TAF LPPS 190500Z 1906/2012 09008KT 9999 SCT015
Forecast period: 0600 UTC 19 September 2018 to 1200 UTC 20 September 2018
Forecast type: FROM: standard forecast or significant change
Winds: from the E (90 degrees) at 9 MPH (8 knots; 4.1 m/s)
Visibility: 6 or more miles 10+ km)
Ceiling: at least 12,000 feet AGL
Clouds: scattered clouds at 1500 feet AGL
Weather: no significant weather forecast for this period
Text: TEMPO 1906/1909 BKN015
Forecast period: 0600 to 0900 UTC 19 September 2018
Forecast type: TEMPORARY: The following changes expected for less than half the time period
Visibility: missing
Ceiling: 1500 feet AGL
Clouds: broken clouds at 1500 feet AGL
Weather: no significant weather forecast for this period